sensor_id;sensor_type;location;lat;lon;timestamp;P1;durP1;ratioP1;P2;durP2;ratioP2
64022;SDS011;50264;52.088;5.296;2023-02-04T00:01:37;20.2;;;5.6;;
64022;SDS011;50264;52.088;5.296;2023-02-04T00:04:50;31.4;;;6.1;;
64022;SDS011;50264;52.088;5.296;2023-02-04T00:06:26;23.0;;;5.6;;
64022;SDS011;50264;52.088;5.296;2023-02-04T00:08:03;27.2;;;6.5;;
64022;SDS011;50264;52.088;5.296;2023-02-04T00:11:15;21.5;;;5.9;;
64022;SDS011;50264;52.088;5.296;2023-02-04T00:12:52;20.9;;;5.3;;
64022;SDS011;50264;52.088;5.296;2023-02-04T00:14:28;23.0;;;5.6;;
64022;SDS011;50264;52.088;5.296;2023-02-04T00:17:41;23.0;;;5.6;;
64022;SDS011;50264;52.088;5.296;2023-02-04T00:19:17;22.2;;;5.6;;
64022;SDS011;50264;52.088;5.296;2023-02-04T00:20:54;19.2;;;5.4;;
64022;SDS011;50264;52.088;5.296;2023-02-04T00:22:30;28.4;;;5.7;;
64022;SDS011;50264;52.088;5.296;2023-02-04T00:25:42;22.1;;;6.3;;
64022;SDS011;50264;52.088;5.296;2023-02-04T00:27:18;26.5;;;6.1;;
64022;SDS011;50264;52.088;5.296;2023-02-04T00:28:55;22.1;;;5.9;;
64022;SDS011;50264;52.088;5.296;2023-02-04T00:32:08;19.5;;;5.8;;
64022;SDS011;50264;52.088;5.296;2023-02-04T00:33:44;19.5;;;5.7;;
64022;SDS011;50264;52.088;5.296;2023-02-04T00:35:20;24.4;;;5.9;;
64022;SDS011;50264;52.088;5.296;2023-02-04T00:38:33;27.1;;;5.8;;
64022;SDS011;50264;52.088;5.296;2023-02-04T00:40:10;27.0;;;6.2;;
64022;SDS011;50264;52.088;5.296;2023-02-04T00:41:46;29.6;;;5.7;;
64022;SDS011;50264;52.088;5.296;2023-02-04T00:44:59;20.9;;;6.3;;
64022;SDS011;50264;52.088;5.296;2023-02-04T00:46:35;25.6;;;5.6;;
64022;SDS011;50264;52.088;5.296;2023-02-04T00:48:11;29.0;;;6.0;;
64022;SDS011;50264;52.088;5.296;2023-02-04T00:49:47;25.7;;;6.2;;
64022;SDS011;50264;52.088;5.296;2023-02-04T00:53:00;19.41;;;5.7;;
64022;SDS011;50264;52.088;5.296;2023-02-04T00:54:37;20.7;;;5.9;;
64022;SDS011;50264;52.088;5.296;2023-02-04T00:56:13;32.5;;;6.9;;
64022;SDS011;50264;52.088;5.296;2023-02-04T00:59:26;20.3;;;5.8;;
64022;SDS011;50264;52.088;5.296;2023-02-04T01:01:02;21.2;;;6.0;;
64022;SDS011;50264;52.088;5.296;2023-02-04T01:02:40;20.2;;;6.0;;
64022;SDS011;50264;52.088;5.296;2023-02-04T01:05:53;31.4;;;7.1;;
64022;SDS011;50264;52.088;5.296;2023-02-04T01:07:29;23.9;;;6.6;;
64022;SDS011;50264;52.088;5.296;2023-02-04T01:09:05;25.2;;;6.6;;
64022;SDS011;50264;52.088;5.296;2023-02-04T01:10:41;29.1;;;6.5;;
64022;SDS011;50264;52.088;5.296;2023-02-04T01:13:54;23.6;;;6.1;;
64022;SDS011;50264;52.088;5.296;2023-02-04T01:15:30;29.1;;;6.8;;
64022;SDS011;50264;52.088;5.296;2023-02-04T01:17:06;25.5;;;6.8;;
64022;SDS011;50264;52.088;5.296;2023-02-04T01:20:19;23.4;;;6.6;;
64022;SDS011;50264;52.088;5.296;2023-02-04T01:21:55;25.4;;;6.4;;
64022;SDS011;50264;52.088;5.296;2023-02-04T01:23:31;26.3;;;6.6;;
64022;SDS011;50264;52.088;5.296;2023-02-04T01:26:44;27.1;;;6.8;;
64022;SDS011;50264;52.088;5.296;2023-02-04T01:28:20;29.1;;;7.0;;
64022;SDS011;50264;52.088;5.296;2023-02-04T01:29:56;23.7;;;6.5;;
64022;SDS011;50264;52.088;5.296;2023-02-04T01:31:33;24.8;;;6.5;;
64022;SDS011;50264;52.088;5.296;2023-02-04T01:34:45;26.4;;;6.7;;
64022;SDS011;50264;52.088;5.296;2023-02-04T01:36:22;25.3;;;6.8;;
64022;SDS011;50264;52.088;5.296;2023-02-04T01:37:58;23.7;;;7.0;;
64022;SDS011;50264;52.088;5.296;2023-02-04T01:41:12;21.2;;;6.2;;
64022;SDS011;50264;52.088;5.296;2023-02-04T01:42:49;24.6;;;6.7;;
64022;SDS011;50264;52.088;5.296;2023-02-04T01:44:27;24.9;;;6.6;;
64022;SDS011;50264;52.088;5.296;2023-02-04T01:47:41;26.4;;;6.8;;
64022;SDS011;50264;52.088;5.296;2023-02-04T01:49:19;17.11;;;6.0;;
64022;SDS011;50264;52.088;5.296;2023-02-04T01:50:57;33.9;;;7.0;;
64022;SDS011;50264;52.088;5.296;2023-02-04T01:52:40;32.8;;;7.6;;
64022;SDS011;50264;52.088;5.296;2023-02-04T01:55:57;28.4;;;7.0;;
64022;SDS011;50264;52.088;5.296;2023-02-04T01:57:34;31.3;;;7.0;;
64022;SDS011;50264;52.088;5.296;2023-02-04T01:59:11;32.4;;;7.7;;
64022;SDS011;50264;52.088;5.296;2023-02-04T02:00:49;30.9;;;7.3;;
64022;SDS011;50264;52.088;5.296;2023-02-04T02:04:23;24.6;;;6.2;;
64022;SDS011;50264;52.088;5.296;2023-02-04T02:06:06;24.8;;;7.0;;
64022;SDS011;50264;52.088;5.296;2023-02-04T02:07:45;26.6;;;7.6;;
64022;SDS011;50264;52.088;5.296;2023-02-04T02:09:21;32.21;;;7.3;;
64022;SDS011;50264;52.088;5.296;2023-02-04T02:12:34;33.3;;;8.4;;
64022;SDS011;50264;52.088;5.296;2023-02-04T02:14:10;26.7;;;7.4;;
64022;SDS011;50264;52.088;5.296;2023-02-04T02:15:47;24.2;;;7.9;;
64022;SDS011;50264;52.088;5.296;2023-02-04T02:19:01;25.4;;;7.1;;
64022;SDS011;50264;52.088;5.296;2023-02-04T02:20:38;27.0;;;7.5;;
64022;SDS011;50264;52.088;5.296;2023-02-04T02:22:20;28.4;;;7.6;;
64022;SDS011;50264;52.088;5.296;2023-02-04T02:24:17;28.3;;;7.7;;
64022;SDS011;50264;52.088;5.296;2023-02-04T02:26:00;31.4;;;8.1;;
64022;SDS011;50264;52.088;5.296;2023-02-04T02:29:14;30.2;;;7.7;;
64022;SDS011;50264;52.088;5.296;2023-02-04T02:30:50;29.0;;;7.9;;
64022;SDS011;50264;52.088;5.296;2023-02-04T02:32:27;28.3;;;7.5;;
64022;SDS011;50264;52.088;5.296;2023-02-04T02:35:42;26.1;;;7.9;;
64022;SDS011;50264;52.088;5.296;2023-02-04T02:37:20;21.2;;;7.4;;
64022;SDS011;50264;52.088;5.296;2023-02-04T02:38:59;30.0;;;8.0;;
64022;SDS011;50264;52.088;5.296;2023-02-04T02:40:35;24.4;;;7.2;;
64022;SDS011;50264;52.088;5.296;2023-02-04T02:43:51;35.71;;;8.5;;
64022;SDS011;50264;52.088;5.296;2023-02-04T02:45:29;31.0;;;8.0;;
64022;SDS011;50264;52.088;5.296;2023-02-04T02:47:08;34.81;;;8.71;;
64022;SDS011;50264;52.088;5.296;2023-02-04T02:50:26;25.6;;;8.31;;
64022;SDS011;50264;52.088;5.296;2023-02-04T02:52:04;24.4;;;6.7;;
64022;SDS011;50264;52.088;5.296;2023-02-04T02:53:40;27.8;;;7.7;;
64022;SDS011;50264;52.088;5.296;2023-02-04T02:55:17;29.9;;;6.9;;
64022;SDS011;50264;52.088;5.296;2023-02-04T02:58:34;21.9;;;6.9;;
64022;SDS011;50264;52.088;5.296;2023-02-04T03:00:13;30.1;;;7.7;;
64022;SDS011;50264;52.088;5.296;2023-02-04T03:01:52;25.9;;;7.2;;
64022;SDS011;50264;52.088;5.296;2023-02-04T03:05:13;29.8;;;7.7;;
64022;SDS011;50264;52.088;5.296;2023-02-04T03:06:49;24.4;;;7.1;;
64022;SDS011;50264;52.088;5.296;2023-02-04T03:08:26;46.1;;;9.21;;
64022;SDS011;50264;52.088;5.296;2023-02-04T03:10:03;30.6;;;7.5;;
64022;SDS011;50264;52.088;5.296;2023-02-04T03:13:16;23.1;;;7.5;;
64022;SDS011;50264;52.088;5.296;2023-02-04T03:14:53;32.1;;;8.31;;
64022;SDS011;50264;52.088;5.296;2023-02-04T03:16:31;37.1;;;7.4;;
64022;SDS011;50264;52.088;5.296;2023-02-04T03:19:48;29.2;;;7.7;;
64022;SDS011;50264;52.088;5.296;2023-02-04T03:21:24;35.1;;;7.4;;
64022;SDS011;50264;52.088;5.296;2023-02-04T03:23:00;30.1;;;7.2;;
64022;SDS011;50264;52.088;5.296;2023-02-04T03:24:36;27.4;;;7.5;;
64022;SDS011;50264;52.088;5.296;2023-02-04T03:27:50;29.4;;;7.2;;
64022;SDS011;50264;52.088;5.296;2023-02-04T03:29:27;28.7;;;7.8;;
64022;SDS011;50264;52.088;5.296;2023-02-04T03:31:03;23.3;;;6.2;;
64022;SDS011;50264;52.088;5.296;2023-02-04T03:34:16;25.9;;;6.7;;
64022;SDS011;50264;52.088;5.296;2023-02-04T03:35:53;31.7;;;8.2;;
64022;SDS011;50264;52.088;5.296;2023-02-04T03:37:30;33.21;;;8.5;;
64022;SDS011;50264;52.088;5.296;2023-02-04T03:40:43;39.4;;;7.9;;
64022;SDS011;50264;52.088;5.296;2023-02-04T03:42:20;26.9;;;7.5;;
64022;SDS011;50264;52.088;5.296;2023-02-04T03:43:56;21.8;;;6.4;;
64022;SDS011;50264;52.088;5.296;2023-02-04T03:45:32;29.5;;;7.1;;
64022;SDS011;50264;52.088;5.296;2023-02-04T03:48:45;25.8;;;7.8;;
64022;SDS011;50264;52.088;5.296;2023-02-04T03:50:21;25.7;;;6.7;;
64022;SDS011;50264;52.088;5.296;2023-02-04T03:51:57;28.5;;;6.6;;
64022;SDS011;50264;52.088;5.296;2023-02-04T03:55:09;21.2;;;5.7;;
64022;SDS011;50264;52.088;5.296;2023-02-04T03:56:46;26.0;;;6.4;;
64022;SDS011;50264;52.088;5.296;2023-02-04T03:58:22;24.3;;;6.8;;
64022;SDS011;50264;52.088;5.296;2023-02-04T04:01:34;26.7;;;7.6;;
64022;SDS011;50264;52.088;5.296;2023-02-04T04:03:10;19.8;;;6.5;;
64022;SDS011;50264;52.088;5.296;2023-02-04T04:04:46;30.8;;;7.8;;
64022;SDS011;50264;52.088;5.296;2023-02-04T04:06:23;19.91;;;6.2;;
64022;SDS011;50264;52.088;5.296;2023-02-04T04:09:36;27.1;;;6.9;;
64022;SDS011;50264;52.088;5.296;2023-02-04T04:11:12;26.9;;;7.0;;
64022;SDS011;50264;52.088;5.296;2023-02-04T04:12:49;21.4;;;6.8;;
64022;SDS011;50264;52.088;5.296;2023-02-04T04:16:02;28.3;;;7.0;;
64022;SDS011;50264;52.088;5.296;2023-02-04T04:17:39;23.8;;;7.4;;
64022;SDS011;50264;52.088;5.296;2023-02-04T04:19:15;22.8;;;5.9;;
64022;SDS011;50264;52.088;5.296;2023-02-04T04:22:27;25.6;;;7.0;;
64022;SDS011;50264;52.088;5.296;2023-02-04T04:24:04;25.4;;;6.6;;
64022;SDS011;50264;52.088;5.296;2023-02-04T04:25:41;28.5;;;6.8;;
64022;SDS011;50264;52.088;5.296;2023-02-04T04:27:17;20.41;;;6.3;;
64022;SDS011;50264;52.088;5.296;2023-02-04T04:30:29;32.1;;;7.3;;
64022;SDS011;50264;52.088;5.296;2023-02-04T04:32:05;32.0;;;8.1;;
64022;SDS011;50264;52.088;5.296;2023-02-04T04:33:42;23.8;;;7.9;;
64022;SDS011;50264;52.088;5.296;2023-02-04T04:36:54;23.5;;;5.8;;
64022;SDS011;50264;52.088;5.296;2023-02-04T04:38:30;28.0;;;6.0;;
64022;SDS011;50264;52.088;5.296;2023-02-04T04:40:08;20.7;;;6.1;;
64022;SDS011;50264;52.088;5.296;2023-02-04T04:43:23;20.41;;;6.3;;
64022;SDS011;50264;52.088;5.296;2023-02-04T04:44:59;19.11;;;6.4;;
64022;SDS011;50264;52.088;5.296;2023-02-04T04:46:35;19.5;;;6.0;;
64022;SDS011;50264;52.088;5.296;2023-02-04T04:48:11;28.2;;;6.5;;
64022;SDS011;50264;52.088;5.296;2023-02-04T04:51:23;21.8;;;7.1;;
64022;SDS011;50264;52.088;5.296;2023-02-04T04:53:00;21.1;;;6.9;;
64022;SDS011;50264;52.088;5.296;2023-02-04T04:54:36;18.8;;;5.8;;
64022;SDS011;50264;52.088;5.296;2023-02-04T04:57:48;19.7;;;6.0;;
64022;SDS011;50264;52.088;5.296;2023-02-04T04:59:24;13.5;;;6.0;;
64022;SDS011;50264;52.088;5.296;2023-02-04T05:01:00;17.91;;;6.1;;
64022;SDS011;50264;52.088;5.296;2023-02-04T05:04:13;24.6;;;5.8;;
64022;SDS011;50264;52.088;5.296;2023-02-04T05:05:49;15.2;;;6.2;;
64022;SDS011;50264;52.088;5.296;2023-02-04T05:07:25;16.9;;;5.2;;
64022;SDS011;50264;52.088;5.296;2023-02-04T05:10:39;18.0;;;5.5;;
64022;SDS011;50264;52.088;5.296;2023-02-04T05:12:16;21.3;;;6.7;;
64022;SDS011;50264;52.088;5.296;2023-02-04T05:13:53;16.3;;;5.4;;
64022;SDS011;50264;52.088;5.296;2023-02-04T05:15:29;25.0;;;5.7;;
64022;SDS011;50264;52.088;5.296;2023-02-04T05:18:42;19.0;;;5.7;;
64022;SDS011;50264;52.088;5.296;2023-02-04T05:20:19;16.4;;;5.5;;
64022;SDS011;50264;52.088;5.296;2023-02-04T05:21:56;21.2;;;6.4;;
64022;SDS011;50264;52.088;5.296;2023-02-04T05:25:10;20.3;;;6.4;;
64022;SDS011;50264;52.088;5.296;2023-02-04T05:26:46;30.1;;;7.6;;
64022;SDS011;50264;52.088;5.296;2023-02-04T05:28:22;23.2;;;7.3;;
64022;SDS011;50264;52.088;5.296;2023-02-04T05:31:34;23.4;;;6.7;;
64022;SDS011;50264;52.088;5.296;2023-02-04T05:33:11;22.2;;;6.0;;
64022;SDS011;50264;52.088;5.296;2023-02-04T05:34:47;19.3;;;6.1;;
64022;SDS011;50264;52.088;5.296;2023-02-04T05:36:23;17.61;;;5.5;;
64022;SDS011;50264;52.088;5.296;2023-02-04T05:39:35;16.9;;;5.9;;
64022;SDS011;50264;52.088;5.296;2023-02-04T05:41:11;22.3;;;6.2;;
64022;SDS011;50264;52.088;5.296;2023-02-04T05:42:48;23.2;;;6.2;;
64022;SDS011;50264;52.088;5.296;2023-02-04T05:46:00;20.3;;;5.9;;
64022;SDS011;50264;52.088;5.296;2023-02-04T05:47:37;16.8;;;5.4;;
64022;SDS011;50264;52.088;5.296;2023-02-04T05:49:13;20.3;;;6.1;;
64022;SDS011;50264;52.088;5.296;2023-02-04T05:52:27;25.4;;;6.2;;
64022;SDS011;50264;52.088;5.296;2023-02-04T05:54:03;25.1;;;6.2;;
64022;SDS011;50264;52.088;5.296;2023-02-04T05:55:39;19.5;;;6.7;;
64022;SDS011;50264;52.088;5.296;2023-02-04T05:57:15;22.9;;;6.1;;
64022;SDS011;50264;52.088;5.296;2023-02-04T06:00:28;16.3;;;5.7;;
64022;SDS011;50264;52.088;5.296;2023-02-04T06:02:04;14.3;;;5.5;;
64022;SDS011;50264;52.088;5.296;2023-02-04T06:03:40;16.0;;;5.7;;
64022;SDS011;50264;52.088;5.296;2023-02-04T06:06:54;16.0;;;5.4;;
64022;SDS011;50264;52.088;5.296;2023-02-04T06:08:30;19.11;;;5.4;;
64022;SDS011;50264;52.088;5.296;2023-02-04T06:10:07;26.8;;;5.3;;
64022;SDS011;50264;52.088;5.296;2023-02-04T06:13:21;20.9;;;5.8;;
64022;SDS011;50264;52.088;5.296;2023-02-04T06:14:57;17.7;;;5.6;;
64022;SDS011;50264;52.088;5.296;2023-02-04T06:16:33;19.5;;;5.7;;
64022;SDS011;50264;52.088;5.296;2023-02-04T06:18:09;19.5;;;5.4;;
64022;SDS011;50264;52.088;5.296;2023-02-04T06:21:22;17.11;;;4.7;;
64022;SDS011;50264;52.088;5.296;2023-02-04T06:22:58;18.5;;;5.11;;
64022;SDS011;50264;52.088;5.296;2023-02-04T06:24:35;18.7;;;5.2;;
64022;SDS011;50264;52.088;5.296;2023-02-04T06:27:49;17.7;;;4.91;;
64022;SDS011;50264;52.088;5.296;2023-02-04T06:29:25;17.91;;;6.2;;
64022;SDS011;50264;52.088;5.296;2023-02-04T06:31:02;16.8;;;5.4;;
64022;SDS011;50264;52.088;5.296;2023-02-04T06:34:15;24.3;;;6.8;;
64022;SDS011;50264;52.088;5.296;2023-02-04T06:35:52;18.3;;;4.91;;
64022;SDS011;50264;52.088;5.296;2023-02-04T06:37:29;27.3;;;6.4;;
64022;SDS011;50264;52.088;5.296;2023-02-04T06:39:05;13.7;;;4.41;;
64022;SDS011;50264;52.088;5.296;2023-02-04T06:42:17;22.3;;;5.5;;
64022;SDS011;50264;52.088;5.296;2023-02-04T06:43:54;19.0;;;6.2;;
64022;SDS011;50264;52.088;5.296;2023-02-04T06:45:30;22.5;;;5.9;;
64022;SDS011;50264;52.088;5.296;2023-02-04T06:48:42;23.5;;;7.4;;
64022;SDS011;50264;52.088;5.296;2023-02-04T06:50:18;18.2;;;6.0;;
64022;SDS011;50264;52.088;5.296;2023-02-04T06:51:54;19.2;;;5.9;;
64022;SDS011;50264;52.088;5.296;2023-02-04T06:55:06;25.7;;;7.4;;
64022;SDS011;50264;52.088;5.296;2023-02-04T06:56:42;23.7;;;7.1;;
64022;SDS011;50264;52.088;5.296;2023-02-04T06:58:18;16.5;;;6.3;;
64022;SDS011;50264;52.088;5.296;2023-02-04T07:01:30;21.7;;;6.6;;
64022;SDS011;50264;52.088;5.296;2023-02-04T07:03:06;19.8;;;6.4;;
64022;SDS011;50264;52.088;5.296;2023-02-04T07:04:42;21.8;;;6.2;;
64022;SDS011;50264;52.088;5.296;2023-02-04T07:06:18;32.0;;;7.1;;
64022;SDS011;50264;52.088;5.296;2023-02-04T07:09:30;21.5;;;6.4;;
64022;SDS011;50264;52.088;5.296;2023-02-04T07:11:06;24.0;;;6.4;;
64022;SDS011;50264;52.088;5.296;2023-02-04T07:12:42;25.2;;;6.5;;
64022;SDS011;50264;52.088;5.296;2023-02-04T07:15:54;22.7;;;6.2;;
64022;SDS011;50264;52.088;5.296;2023-02-04T07:17:31;23.6;;;5.9;;
64022;SDS011;50264;52.088;5.296;2023-02-04T07:19:07;17.8;;;5.6;;
64022;SDS011;50264;52.088;5.296;2023-02-04T07:22:19;18.7;;;6.6;;
64022;SDS011;50264;52.088;5.296;2023-02-04T07:23:55;16.5;;;6.0;;
64022;SDS011;50264;52.088;5.296;2023-02-04T07:25:31;19.91;;;7.3;;
64022;SDS011;50264;52.088;5.296;2023-02-04T07:28:44;21.8;;;7.6;;
64022;SDS011;50264;52.088;5.296;2023-02-04T07:30:20;20.9;;;6.4;;
64022;SDS011;50264;52.088;5.296;2023-02-04T07:31:55;14.0;;;6.8;;
64022;SDS011;50264;52.088;5.296;2023-02-04T07:33:31;17.8;;;7.0;;
64022;SDS011;50264;52.088;5.296;2023-02-04T07:36:45;20.0;;;8.9;;
64022;SDS011;50264;52.088;5.296;2023-02-04T07:38:22;23.8;;;8.6;;
64022;SDS011;50264;52.088;5.296;2023-02-04T07:39:58;19.91;;;7.7;;
64022;SDS011;50264;52.088;5.296;2023-02-04T07:43:10;28.8;;;8.5;;
64022;SDS011;50264;52.088;5.296;2023-02-04T07:44:46;31.4;;;9.1;;
64022;SDS011;50264;52.088;5.296;2023-02-04T07:46:22;20.8;;;7.8;;
64022;SDS011;50264;52.088;5.296;2023-02-04T07:49:33;21.0;;;8.6;;
64022;SDS011;50264;52.088;5.296;2023-02-04T07:51:09;22.7;;;8.5;;
64022;SDS011;50264;52.088;5.296;2023-02-04T07:52:45;20.11;;;7.6;;
64022;SDS011;50264;52.088;5.296;2023-02-04T07:55:56;27.5;;;7.9;;
64022;SDS011;50264;52.088;5.296;2023-02-04T07:57:33;17.91;;;6.6;;
64022;SDS011;50264;52.088;5.296;2023-02-04T07:59:09;30.5;;;7.2;;
64022;SDS011;50264;52.088;5.296;2023-02-04T08:00:45;22.3;;;6.2;;
64022;SDS011;50264;52.088;5.296;2023-02-04T08:03:57;22.5;;;8.31;;
64022;SDS011;50264;52.088;5.296;2023-02-04T08:05:34;24.1;;;8.5;;
64022;SDS011;50264;52.088;5.296;2023-02-04T08:07:10;21.4;;;8.31;;
64022;SDS011;50264;52.088;5.296;2023-02-04T08:10:22;27.1;;;7.6;;
64022;SDS011;50264;52.088;5.296;2023-02-04T08:11:59;21.5;;;6.0;;
64022;SDS011;50264;52.088;5.296;2023-02-04T08:13:35;18.8;;;5.9;;
64022;SDS011;50264;52.088;5.296;2023-02-04T08:16:47;19.2;;;5.9;;
64022;SDS011;50264;52.088;5.296;2023-02-04T08:18:24;19.0;;;6.0;;
64022;SDS011;50264;52.088;5.296;2023-02-04T08:20:00;20.6;;;5.9;;
64022;SDS011;50264;52.088;5.296;2023-02-04T08:21:36;16.11;;;5.11;;
64022;SDS011;50264;52.088;5.296;2023-02-04T08:24:48;21.4;;;6.9;;
64022;SDS011;50264;52.088;5.296;2023-02-04T08:26:24;15.1;;;6.5;;
64022;SDS011;50264;52.088;5.296;2023-02-04T08:28:00;16.9;;;6.1;;
64022;SDS011;50264;52.088;5.296;2023-02-04T08:31:14;26.2;;;6.5;;
64022;SDS011;50264;52.088;5.296;2023-02-04T08:32:50;26.8;;;7.5;;
64022;SDS011;50264;52.088;5.296;2023-02-04T08:34:26;22.9;;;7.1;;
64022;SDS011;50264;52.088;5.296;2023-02-04T08:37:39;26.0;;;7.8;;
64022;SDS011;50264;52.088;5.296;2023-02-04T08:39:15;29.1;;;7.8;;
64022;SDS011;50264;52.088;5.296;2023-02-04T08:40:52;25.3;;;7.6;;
64022;SDS011;50264;52.088;5.296;2023-02-04T08:44:05;25.6;;;7.6;;
64022;SDS011;50264;52.088;5.296;2023-02-04T08:45:41;23.9;;;7.1;;
64022;SDS011;50264;52.088;5.296;2023-02-04T08:47:17;26.8;;;8.0;;
64022;SDS011;50264;52.088;5.296;2023-02-04T08:48:53;25.1;;;8.81;;
64022;SDS011;50264;52.088;5.296;2023-02-04T08:52:07;18.91;;;7.1;;
64022;SDS011;50264;52.088;5.296;2023-02-04T08:53:44;23.1;;;6.9;;
64022;SDS011;50264;52.088;5.296;2023-02-04T08:55:20;25.4;;;8.2;;
64022;SDS011;50264;52.088;5.296;2023-02-04T09:00:10;20.3;;;7.8;;
64022;SDS011;50264;52.088;5.296;2023-02-04T09:01:48;26.7;;;9.5;;
64022;SDS011;50264;52.088;5.296;2023-02-04T09:03:25;27.1;;;9.4;;
64022;SDS011;50264;52.088;5.296;2023-02-04T09:06:37;26.9;;;9.81;;
64022;SDS011;50264;52.088;5.296;2023-02-04T09:08:14;34.1;;;10.8;;
64022;SDS011;50264;52.088;5.296;2023-02-04T09:09:50;33.9;;;9.81;;
64022;SDS011;50264;52.088;5.296;2023-02-04T09:13:02;27.1;;;10.3;;
64022;SDS011;50264;52.088;5.296;2023-02-04T09:14:39;30.4;;;10.3;;
64022;SDS011;50264;52.088;5.296;2023-02-04T09:16:16;26.7;;;10.5;;
64022;SDS011;50264;52.088;5.296;2023-02-04T09:19:36;37.6;;;10.9;;
64022;SDS011;50264;52.088;5.296;2023-02-04T09:21:12;27.5;;;10.4;;
64022;SDS011;50264;52.088;5.296;2023-02-04T09:22:49;26.8;;;10.0;;
64022;SDS011;50264;52.088;5.296;2023-02-04T09:24:25;32.4;;;10.3;;
64022;SDS011;50264;52.088;5.296;2023-02-04T09:27:40;30.6;;;10.6;;
64022;SDS011;50264;52.088;5.296;2023-02-04T09:29:16;26.0;;;9.1;;
64022;SDS011;50264;52.088;5.296;2023-02-04T09:30:53;26.7;;;9.9;;
64022;SDS011;50264;52.088;5.296;2023-02-04T09:34:04;28.1;;;8.4;;
64022;SDS011;50264;52.088;5.296;2023-02-04T09:35:41;28.9;;;9.0;;
64022;SDS011;50264;52.088;5.296;2023-02-04T09:37:17;25.1;;;9.1;;
64022;SDS011;50264;52.088;5.296;2023-02-04T09:40:30;24.6;;;9.0;;
64022;SDS011;50264;52.088;5.296;2023-02-04T09:42:11;31.9;;;9.21;;
64022;SDS011;50264;52.088;5.296;2023-02-04T09:43:49;23.6;;;9.1;;
64022;SDS011;50264;52.088;5.296;2023-02-04T09:45:27;28.1;;;8.2;;
64022;SDS011;50264;52.088;5.296;2023-02-04T09:48:48;28.1;;;8.2;;
64022;SDS011;50264;52.088;5.296;2023-02-04T09:50:26;29.7;;;8.71;;
64022;SDS011;50264;52.088;5.296;2023-02-04T09:52:03;26.1;;;7.7;;
64022;SDS011;50264;52.088;5.296;2023-02-04T09:53:44;22.0;;;8.0;;
64022;SDS011;50264;52.088;5.296;2023-02-04T09:57:10;27.6;;;7.5;;
64022;SDS011;50264;52.088;5.296;2023-02-04T09:58:51;28.6;;;7.3;;
64022;SDS011;50264;52.088;5.296;2023-02-04T10:00:28;25.0;;;7.1;;
64022;SDS011;50264;52.088;5.296;2023-02-04T10:02:09;25.3;;;6.8;;
64022;SDS011;50264;52.088;5.296;2023-02-04T10:05:36;28.6;;;7.6;;
64022;SDS011;50264;52.088;5.296;2023-02-04T10:07:13;36.4;;;8.6;;
64022;SDS011;50264;52.088;5.296;2023-02-04T10:08:53;25.5;;;7.4;;
64022;SDS011;50264;52.088;5.296;2023-02-04T10:10:32;25.5;;;7.4;;
64022;SDS011;50264;52.088;5.296;2023-02-04T10:13:45;24.1;;;7.4;;
64022;SDS011;50264;52.088;5.296;2023-02-04T10:15:23;31.6;;;6.8;;
64022;SDS011;50264;52.088;5.296;2023-02-04T10:17:00;24.6;;;6.5;;
64022;SDS011;50264;52.088;5.296;2023-02-04T10:20:15;30.3;;;8.1;;
64022;SDS011;50264;52.088;5.296;2023-02-04T10:21:54;32.71;;;6.8;;
64022;SDS011;50264;52.088;5.296;2023-02-04T10:23:31;28.4;;;7.1;;
64022;SDS011;50264;52.088;5.296;2023-02-04T10:25:10;30.5;;;7.0;;
64022;SDS011;50264;52.088;5.296;2023-02-04T10:28:31;32.8;;;6.9;;
64022;SDS011;50264;52.088;5.296;2023-02-04T10:30:14;19.41;;;6.5;;
64022;SDS011;50264;52.088;5.296;2023-02-04T10:31:54;24.7;;;6.4;;
64022;SDS011;50264;52.088;5.296;2023-02-04T10:33:32;28.2;;;7.2;;
64022;SDS011;50264;52.088;5.296;2023-02-04T10:36:51;29.0;;;6.3;;
64022;SDS011;50264;52.088;5.296;2023-02-04T10:38:29;28.9;;;6.4;;
64022;SDS011;50264;52.088;5.296;2023-02-04T10:40:21;23.0;;;6.5;;
64022;SDS011;50264;52.088;5.296;2023-02-04T10:42:01;24.5;;;7.1;;
64022;SDS011;50264;52.088;5.296;2023-02-04T10:45:22;21.3;;;5.5;;
64022;SDS011;50264;52.088;5.296;2023-02-04T10:46:59;29.5;;;7.1;;
64022;SDS011;50264;52.088;5.296;2023-02-04T10:48:38;20.2;;;6.9;;
64022;SDS011;50264;52.088;5.296;2023-02-04T10:50:17;36.0;;;8.0;;
64022;SDS011;50264;52.088;5.296;2023-02-04T10:54:36;25.5;;;7.1;;
64022;SDS011;50264;52.088;5.296;2023-02-04T10:56:14;27.6;;;6.8;;
64022;SDS011;50264;52.088;5.296;2023-02-04T10:57:55;30.0;;;7.7;;
64022;SDS011;50264;52.088;5.296;2023-02-04T10:59:32;24.2;;;7.8;;
64022;SDS011;50264;52.088;5.296;2023-02-04T11:01:10;27.8;;;7.0;;
64022;SDS011;50264;52.088;5.296;2023-02-04T11:02:48;24.0;;;7.1;;
64022;SDS011;50264;52.088;5.296;2023-02-04T11:06:09;28.0;;;6.5;;
64022;SDS011;50264;52.088;5.296;2023-02-04T11:07:48;24.0;;;6.5;;
64022;SDS011;50264;52.088;5.296;2023-02-04T11:09:25;24.7;;;6.9;;
64022;SDS011;50264;52.088;5.296;2023-02-04T11:11:03;36.1;;;7.7;;
64022;SDS011;50264;52.088;5.296;2023-02-04T11:14:22;33.6;;;6.6;;
64022;SDS011;50264;52.088;5.296;2023-02-04T11:16:07;28.9;;;7.1;;
64022;SDS011;50264;52.088;5.296;2023-02-04T11:18:01;25.4;;;7.4;;
64022;SDS011;50264;52.088;5.296;2023-02-04T11:19:42;31.9;;;7.8;;
64022;SDS011;50264;52.088;5.296;2023-02-04T11:23:12;23.7;;;6.7;;
64022;SDS011;50264;52.088;5.296;2023-02-04T11:24:51;24.3;;;6.6;;
64022;SDS011;50264;52.088;5.296;2023-02-04T11:26:30;27.1;;;6.8;;
64022;SDS011;50264;52.088;5.296;2023-02-04T11:28:12;30.8;;;7.4;;
64022;SDS011;50264;52.088;5.296;2023-02-04T11:31:28;38.6;;;7.7;;
64022;SDS011;50264;52.088;5.296;2023-02-04T11:33:21;27.7;;;7.5;;
64022;SDS011;50264;52.088;5.296;2023-02-04T11:35:19;24.0;;;6.4;;
64022;SDS011;50264;52.088;5.296;2023-02-04T11:37:27;28.2;;;6.9;;
64022;SDS011;50264;52.088;5.296;2023-02-04T11:39:13;26.6;;;6.8;;
64022;SDS011;50264;52.088;5.296;2023-02-04T11:40:54;27.5;;;7.0;;
64022;SDS011;50264;52.088;5.296;2023-02-04T11:42:37;36.5;;;7.6;;
64022;SDS011;50264;52.088;5.296;2023-02-04T11:45:59;30.8;;;6.8;;
64022;SDS011;50264;52.088;5.296;2023-02-04T11:47:39;31.1;;;7.1;;
64022;SDS011;50264;52.088;5.296;2023-02-04T11:49:18;37.5;;;7.3;;
64022;SDS011;50264;52.088;5.296;2023-02-04T11:54:10;27.2;;;6.7;;
64022;SDS011;50264;52.088;5.296;2023-02-04T11:55:49;25.0;;;6.5;;
64022;SDS011;50264;52.088;5.296;2023-02-04T11:57:25;28.7;;;7.2;;
64022;SDS011;50264;52.088;5.296;2023-02-04T12:00:41;26.5;;;6.0;;
64022;SDS011;50264;52.088;5.296;2023-02-04T12:02:18;23.6;;;7.1;;
64022;SDS011;50264;52.088;5.296;2023-02-04T12:03:57;35.5;;;7.6;;
64022;SDS011;50264;52.088;5.296;2023-02-04T12:09:06;27.6;;;7.3;;
64022;SDS011;50264;52.088;5.296;2023-02-04T12:10:59;30.5;;;7.4;;
64022;SDS011;50264;52.088;5.296;2023-02-04T12:12:41;24.0;;;7.0;;
64022;SDS011;50264;52.088;5.296;2023-02-04T12:14:27;31.9;;;7.7;;
64022;SDS011;50264;52.088;5.296;2023-02-04T12:16:06;26.7;;;7.0;;
64022;SDS011;50264;52.088;5.296;2023-02-04T12:19:20;27.0;;;7.3;;
64022;SDS011;50264;52.088;5.296;2023-02-04T12:20:58;29.9;;;6.6;;
64022;SDS011;50264;52.088;5.296;2023-02-04T12:22:36;26.8;;;7.1;;
64022;SDS011;50264;52.088;5.296;2023-02-04T12:25:48;26.8;;;7.6;;
64022;SDS011;50264;52.088;5.296;2023-02-04T12:27:25;30.0;;;7.9;;
64022;SDS011;50264;52.088;5.296;2023-02-04T12:29:02;31.4;;;8.2;;
64022;SDS011;50264;52.088;5.296;2023-02-04T12:30:38;38.71;;;8.1;;
64022;SDS011;50264;52.088;5.296;2023-02-04T12:33:53;30.0;;;7.9;;
64022;SDS011;50264;52.088;5.296;2023-02-04T12:35:29;26.5;;;8.1;;
64022;SDS011;50264;52.088;5.296;2023-02-04T12:37:05;28.0;;;8.4;;
64022;SDS011;50264;52.088;5.296;2023-02-04T12:40:18;27.1;;;7.4;;
64022;SDS011;50264;52.088;5.296;2023-02-04T12:41:58;30.4;;;7.5;;
64022;SDS011;50264;52.088;5.296;2023-02-04T12:43:33;29.1;;;7.7;;
64022;SDS011;50264;52.088;5.296;2023-02-04T12:46:49;30.7;;;7.7;;
64022;SDS011;50264;52.088;5.296;2023-02-04T12:48:25;27.6;;;7.1;;
64022;SDS011;50264;52.088;5.296;2023-02-04T12:50:01;23.7;;;7.0;;
64022;SDS011;50264;52.088;5.296;2023-02-04T12:51:38;27.6;;;6.8;;
64022;SDS011;50264;52.088;5.296;2023-02-04T12:54:51;26.4;;;7.8;;